Time;durP1;ratioP1;P1;durP2;ratioP2;P2;SDS_P1;SDS_P2;PMS_P1;PMS_P2;Temp;Humidity;BMP_temperature;BMP_pressure;BME280_temperature;BME280_humidity;BME280_pressure;Samples;Min_cycle;Max_cycle;Signal;HPM_P1;HPM_P2
2022/09/01 00:01:49;;;;;;;12.18;11.27;;;15.20;99.90;;;16.08;90.87;98171.66;5221095;28;20201;-67
2022/09/01 00:04:25;;;;;;;11.25;10.15;;;15.20;99.90;;;16.07;90.63;98175.03;5221077;28;20241;-66
2022/09/01 00:06:59;;;;;;;12.55;11.30;;;15.20;99.90;;;16.06;90.56;98175.88;5219575;28;20363;-67
2022/09/01 00:09:34;;;;;;;12.70;11.70;;;15.20;99.90;;;16.01;90.92;98172.22;5220788;28;20216;-66
2022/09/01 00:12:09;;;;;;;11.45;10.55;;;15.10;99.90;;;16.00;90.71;98173.03;5223044;28;20707;-67
2022/09/01 00:14:44;;;;;;;13.55;12.43;;;15.10;99.90;;;15.98;90.93;98172.09;5224413;28;20256;-66
2022/09/01 00:17:17;;;;;;;12.70;11.60;;;15.10;99.90;;;16.02;91.04;98168.81;5222909;28;20236;-67
2022/09/01 00:19:50;;;;;;;12.82;11.80;;;15.20;99.90;;;15.99;91.20;98167.00;5224181;28;20288;-66
2022/09/01 00:22:23;;;;;;;12.95;11.95;;;15.20;99.90;;;16.01;91.31;98161.91;5224613;28;20724;-67
2022/09/01 00:24:58;;;;;;;13.18;11.88;;;15.20;99.90;;;15.97;91.71;98165.19;5222856;28;20245;-67
2022/09/01 00:27:31;;;;;;;13.38;12.27;;;15.10;99.90;;;15.95;91.61;98161.66;5226589;28;20480;-67
2022/09/01 00:30:06;;;;;;;12.93;11.93;;;15.10;99.90;;;15.93;91.63;98163.28;5223442;28;20233;-67
2022/09/01 00:32:39;;;;;;;12.75;11.50;;;15.10;99.90;;;15.94;91.14;98160.78;5224045;28;20268;-67
2022/09/01 00:35:13;;;;;;;12.75;11.75;;;15.00;99.90;;;15.93;91.36;98155.56;5223231;28;20562;-67
2022/09/01 00:37:46;;;;;;;13.25;12.15;;;15.10;99.90;;;15.85;91.24;98146.63;5222978;28;20233;-66
2022/09/01 00:40:21;;;;;;;12.25;11.35;;;15.00;99.90;;;15.90;91.19;98151.16;5224250;28;20672;-67
2022/09/01 00:42:54;;;;;;;12.60;11.60;;;15.00;99.90;;;15.89;91.09;98145.94;5226284;28;20208;-66
2022/09/01 00:45:27;;;;;;;12.27;11.27;;;15.00;99.90;;;15.90;90.90;98142.53;5223806;28;20663;-67
2022/09/01 00:48:04;;;;;;;13.00;11.90;;;15.00;99.90;;;15.96;90.60;98142.78;5222821;28;20235;-68
2022/09/01 00:50:39;;;;;;;12.93;11.73;;;15.00;99.90;;;15.93;90.44;98142.66;5225149;28;20205;-68
2022/09/01 00:53:12;;;;;;;13.10;12.10;;;15.00;99.90;;;15.85;90.75;98138.88;5222864;28;20321;-68
2022/09/01 00:55:47;;;;;;;12.18;11.27;;;14.90;99.90;;;15.77;90.98;98136.88;5223161;28;20704;-65
2022/09/01 00:58:21;;;;;;;11.30;10.35;;;14.90;99.90;;;15.73;90.76;98132.41;5224201;28;20232;-66
2022/09/01 01:00:54;;;;;;;11.82;10.65;;;14.80;99.90;;;15.70;90.44;98129.72;5223851;28;20661;-66
2022/09/01 01:03:29;;;;;;;11.00;9.88;;;14.80;99.90;;;15.65;89.88;98131.22;5223968;28;20232;-66
2022/09/01 01:06:08;;;;;;;11.60;10.70;;;14.70;99.90;;;15.60;90.11;98132.72;5222210;28;20247;-65
2022/09/01 01:08:56;;;;;;;10.93;10.05;;;14.60;99.90;;;15.58;90.52;98134.31;5222774;28;20197;-66
2022/09/01 01:11:32;;;;;;;11.10;10.18;;;14.60;99.90;;;15.55;90.05;98134.19;5224907;28;20245;-66
2022/09/01 01:14:11;;;;;;;10.80;10.00;;;14.60;99.90;;;15.44;90.43;98138.91;5223084;28;20220;-65
2022/09/01 01:16:49;;;;;;;11.98;10.90;;;14.60;99.90;;;15.44;90.32;98140.59;5223408;28;20204;-66
2022/09/01 01:25:25;;;;;;;13.20;12.00;;;14.40;99.90;;;15.18;91.64;98137.78;5225835;28;20243;-66
2022/09/01 01:28:09;;;;;;;11.90;10.90;;;14.30;99.90;;;15.22;91.51;98149.09;5225927;28;20759;-64
2022/09/01 01:30:49;;;;;;;11.20;10.30;;;14.40;99.90;;;15.24;91.30;98145.78;5225642;28;20229;-66
2022/09/01 01:33:26;;;;;;;11.82;10.73;;;14.40;99.90;;;15.28;91.00;98139.06;5225214;28;20239;-65
2022/09/01 01:36:01;;;;;;;13.00;11.70;;;14.40;99.90;;;15.28;91.68;98144.19;5225432;28;20200;-65
2022/09/01 01:38:34;;;;;;;11.70;10.80;;;14.50;99.90;;;15.35;90.86;98140.22;5225669;28;20227;-63
2022/09/01 01:41:24;;;;;;;11.68;10.77;;;14.40;99.90;;;15.28;91.00;98147.69;5221634;28;20236;-65
2022/09/01 01:44:13;;;;;;;13.30;12.10;;;14.40;99.90;;;15.24;91.75;98147.47;5221576;28;20228;-66
2022/09/01 01:46:56;;;;;;;12.80;11.80;;;14.40;99.90;;;15.18;91.64;98157.50;5221934;28;20670;-68
2022/09/01 01:49:35;;;;;;;12.68;11.65;;;14.30;99.90;;;15.16;92.07;98160.00;5221065;28;20328;-67
2022/09/01 01:52:16;;;;;;;12.85;11.68;;;14.30;99.90;;;15.14;92.49;98164.22;5218850;28;20200;-66
2022/09/01 01:54:50;;;;;;;13.27;12.02;;;14.30;99.90;;;15.19;92.04;98164.41;5219139;28;20326;-67
2022/09/01 01:57:24;;;;;;;12.65;11.65;;;14.30;99.90;;;15.15;92.08;98168.56;5221148;28;20267;-67
2022/09/01 01:59:58;;;;;;;11.70;10.73;;;14.30;99.90;;;15.16;92.11;98169.44;5221815;28;20228;-65
2022/09/01 02:02:31;;;;;;;12.85;11.70;;;14.30;99.90;;;15.16;91.68;98169.44;5221549;28;20284;-67
2022/09/01 02:05:05;;;;;;;12.75;11.68;;;14.30;99.90;;;15.15;91.73;98162.53;5221638;28;20229;-67
2022/09/01 02:07:42;;;;;;;13.02;11.90;;;14.30;99.90;;;15.14;91.83;98160.75;5221519;28;20231;-66
2022/09/01 02:10:16;;;;;;;14.52;13.13;;;14.30;99.90;;;15.10;91.42;98164.88;5220463;28;20259;-67
2022/09/01 02:12:51;;;;;;;12.95;11.85;;;14.30;99.90;;;15.14;91.92;98160.75;5221981;28;20236;-65
2022/09/01 02:15:24;;;;;;;13.13;12.02;;;14.30;99.90;;;15.14;91.88;98165.88;5222177;28;20772;-66
2022/09/01 02:17:59;;;;;;;11.90;11.00;;;14.30;99.90;;;15.12;91.74;98164.97;5223398;28;20296;-65
2022/09/01 02:20:37;;;;;;;11.90;10.80;;;14.30;99.90;;;15.10;91.57;98159.72;5220664;28;20193;-66
2022/09/01 02:23:11;;;;;;;13.65;12.38;;;14.20;99.90;;;15.07;92.05;98155.31;5218161;28;20201;-66
2022/09/01 02:25:45;;;;;;;13.13;11.85;;;14.20;99.90;;;15.03;91.73;98148.28;5221581;28;20284;-66
2022/09/01 02:28:41;;;;;;;13.75;12.45;;;14.20;99.90;;;14.97;91.79;98142.88;5217855;28;20197;-66
2022/09/01 02:31:14;;;;;;;13.65;12.55;;;14.20;99.90;;;14.98;92.46;98142.06;5220510;28;20204;-68
2022/09/01 02:33:47;;;;;;;12.52;11.52;;;14.20;99.90;;;15.01;92.68;98136.16;5222433;28;20315;-68
2022/09/01 02:36:23;;;;;;;14.02;12.73;;;14.20;99.90;;;15.00;92.59;98137.00;5221009;28;20241;-68
2022/09/01 02:38:57;;;;;;;14.15;12.93;;;14.20;99.90;;;14.94;93.23;98131.56;5221529;28;20299;-67
2022/09/01 02:41:33;;;;;;;12.93;11.77;;;14.20;99.90;;;14.85;92.44;98137.16;5221565;28;20209;-67
2022/09/01 02:44:10;;;;;;;14.95;13.65;;;14.00;99.90;;;14.79;93.05;98132.66;5222117;28;20228;-67
2022/09/01 02:46:46;;;;;;;13.55;12.43;;;14.00;99.90;;;14.77;92.65;98130.81;5222038;28;20232;-66
2022/09/01 02:49:23;;;;;;;14.65;13.45;;;13.90;99.90;;;14.66;92.87;98130.34;5219591;28;20250;-67
2022/09/01 02:52:00;;;;;;;13.57;12.38;;;13.80;99.90;;;14.62;93.37;98137.03;5222407;28;20197;-65
2022/09/01 02:54:35;;;;;;;12.80;11.70;;;13.80;99.90;;;14.61;93.03;98136.94;5218437;28;20233;-64
2022/09/01 02:57:08;;;;;;;13.60;12.50;;;13.70;99.90;;;14.57;93.06;98132.50;5221415;28;20224;-65
2022/09/01 02:59:43;;;;;;;12.85;11.75;;;13.70;99.90;;;14.53;93.39;98128.88;5220765;28;20288;-65
2022/09/01 03:02:16;;;;;;;14.10;12.80;;;13.70;99.90;;;14.59;92.99;98133.41;5222034;28;20224;-65
2022/09/01 03:04:49;;;;;;;13.82;12.52;;;13.80;99.90;;;14.63;93.45;98130.19;5221701;28;20247;-64
2022/09/01 03:07:22;;;;;;;13.40;12.20;;;13.80;99.90;;;14.53;93.24;98133.16;5220898;28;20212;-65
2022/09/01 03:09:55;;;;;;;12.63;11.52;;;13.70;99.90;;;14.42;93.65;98136.09;5218938;28;20237;-65
2022/09/01 03:12:28;;;;;;;13.98;12.70;;;13.50;99.90;;;14.41;92.46;98134.31;5220286;28;20324;-65
2022/09/01 03:15:03;;;;;;;13.40;12.32;;;13.40;99.90;;;14.30;92.69;98132.06;5221295;28;20248;-66
2022/09/01 03:17:41;;;;;;;13.57;12.38;;;13.40;99.90;;;14.28;93.60;98126.84;5220362;28;20680;-66
2022/09/01 03:20:15;;;;;;;12.70;11.68;;;13.40;99.90;;;14.34;93.12;98129.69;5220568;28;20294;-66
2022/09/01 03:22:49;;;;;;;11.82;10.82;;;13.50;99.90;;;14.34;93.54;98129.69;5219928;28;20294;-66
2022/09/01 03:25:23;;;;;;;12.90;11.80;;;13.50;99.90;;;14.35;92.89;98136.59;5219976;28;20248;-65
2022/09/01 03:28:00;;;;;;;13.45;12.23;;;13.50;99.90;;;14.38;93.08;98139.31;5222184;28;20224;-66
2022/09/01 03:30:39;;;;;;;12.85;11.75;;;13.50;99.90;;;14.37;92.65;98146.97;5222234;28;20311;-65
2022/09/01 03:33:12;;;;;;;13.88;12.57;;;13.60;99.90;;;14.36;92.86;98140.03;5220161;28;20224;-65
2022/09/01 03:35:46;;;;;;;14.10;12.90;;;13.60;99.90;;;14.28;93.13;98147.41;5221890;28;20252;-65
2022/09/01 03:38:23;;;;;;;13.95;12.68;;;13.50;99.90;;;14.28;93.31;98146.50;5221054;28;20225;-65
2022/09/01 03:41:00;;;;;;;14.23;13.02;;;13.50;99.90;;;14.37;91.95;98145.28;5219318;28;20284;-65
2022/09/01 03:43:34;;;;;;;14.23;13.13;;;13.40;99.90;;;14.31;92.35;98142.41;5221135;28;20688;-65
2022/09/01 03:46:09;;;;;;;14.45;13.10;;;13.40;99.90;;;14.24;92.54;98144.63;5222285;28;20236;-65
2022/09/01 03:48:43;;;;;;;12.55;11.38;;;13.40;99.90;;;14.20;92.49;98138.47;5224896;28;20292;-66
2022/09/01 03:51:16;;;;;;;14.13;12.93;;;13.40;99.90;;;14.25;92.96;98134.44;5225105;28;20739;-65
2022/09/01 03:53:53;;;;;;;15.40;14.10;;;13.50;99.90;;;14.32;93.54;98135.59;5225837;28;20245;-66
2022/09/01 03:56:28;;;;;;;15.10;13.80;;;13.50;99.90;;;14.40;93.92;98137.69;5224484;28;21066;-66
2022/09/01 03:59:01;;;;;;;16.10;14.70;;;13.60;99.90;;;14.45;93.44;98131.88;5226592;28;20189;-65
2022/09/01 04:01:39;;;;;;;15.73;14.27;;;13.70;99.90;;;14.50;94.57;98138.13;5225384;28;20708;-65
2022/09/01 04:04:13;;;;;;;16.70;15.10;;;13.80;99.90;;;14.64;93.89;98140.53;5221582;28;20315;-65
2022/09/01 04:06:47;;;;;;;18.05;16.45;;;13.90;99.90;;;14.69;93.79;98140.75;5226532;28;20201;-66
2022/09/01 04:09:20;;;;;;;17.52;15.95;;;13.90;99.90;;;14.70;93.45;98132.22;5226057;28;20602;-65
2022/09/01 04:11:54;;;;;;;15.63;14.13;;;13.90;99.90;;;14.74;93.41;98139.28;5223299;28;20245;-65
2022/09/01 04:14:27;;;;;;;16.35;14.90;;;13.80;99.90;;;14.73;92.17;98137.50;5225130;28;20248;-65
2022/09/01 04:19:57;;;;;;;14.73;13.52;;;13.80;99.90;;;14.83;91.38;98142.25;5224156;28;20202;-66
2022/09/01 04:22:30;;;;;;;14.10;12.90;;;13.80;99.90;;;14.74;91.60;98129.00;5224202;28;20649;-66
2022/09/01 04:25:05;;;;;;;14.63;13.35;;;13.80;99.90;;;14.79;91.19;98142.03;5223680;28;20590;-66
2022/09/01 04:27:39;;;;;;;14.70;13.35;;;13.80;99.90;;;14.74;92.55;98139.28;5220725;28;20201;-66
2022/09/01 04:30:12;;;;;;;14.88;13.48;;;13.80;99.90;;;14.74;92.29;98134.13;5223308;28;20806;-65
2022/09/01 04:32:47;;;;;;;14.73;13.27;;;13.80;99.90;;;14.80;91.84;98139.56;5224028;28;20300;-65
2022/09/01 04:35:26;;;;;;;12.85;11.85;;;13.80;99.90;;;14.79;92.38;98132.66;5223386;28;20311;-66
2022/09/01 04:38:00;;;;;;;14.15;12.85;;;13.90;99.90;;;14.78;92.27;98133.44;5222844;28;20287;-65
2022/09/01 04:40:37;;;;;;;14.00;12.80;;;13.90;99.90;;;14.79;92.39;98137.81;5223180;28;20292;-65
2022/09/01 04:43:11;;;;;;;13.73;12.52;;;13.90;99.90;;;14.81;92.32;98131.00;5224037;28;20215;-65
2022/09/01 04:45:50;;;;;;;14.57;13.38;;;14.00;99.90;;;14.85;93.28;98143.22;5223496;28;20288;-66
2022/09/01 04:48:25;;;;;;;14.05;12.75;;;14.10;99.90;;;14.94;92.11;98132.44;5224368;28;20203;-65
2022/09/01 04:51:01;;;;;;;15.25;13.88;;;14.10;99.90;;;14.90;91.00;98139.97;5224272;28;20197;-67
2022/09/01 04:53:34;;;;;;;14.00;12.80;;;14.00;99.90;;;14.86;91.66;98138.94;5222398;28;20225;-65
2022/09/01 04:56:09;;;;;;;14.18;12.90;;;14.00;99.90;;;14.82;91.60;98131.88;5222827;28;20225;-66
2022/09/01 04:58:42;;;;;;;14.25;12.88;;;14.00;99.90;;;14.85;90.95;98143.22;5224444;28;20258;-66
2022/09/01 05:01:18;;;;;;;15.25;13.95;;;14.00;99.90;;;14.87;91.43;98141.56;5222495;28;20301;-67
2022/09/01 05:03:58;;;;;;;14.77;13.38;;;14.00;99.90;;;14.94;91.45;98141.88;5222682;28;20256;-66
2022/09/01 05:06:32;;;;;;;14.07;12.77;;;14.10;99.90;;;14.96;91.53;98142.81;5222494;28;20650;-66
2022/09/01 05:09:08;;;;;;;14.75;13.35;;;14.20;99.90;;;15.06;91.74;98144.97;5222240;28;20599;-66
2022/09/01 05:11:45;;;;;;;14.60;13.30;;;14.30;99.90;;;15.12;91.56;98147.81;5221611;28;20196;-66
2022/09/01 05:14:20;;;;;;;15.23;13.82;;;14.30;99.90;;;15.03;91.58;98147.41;5230485;28;20302;-66
2022/09/01 05:16:58;;;;;;;14.35;13.10;;;14.20;99.90;;;15.08;91.54;98135.63;5222354;28;20728;-66
2022/09/01 05:19:33;;;;;;;13.80;12.60;;;14.20;99.90;;;15.14;92.05;98141.06;5219653;28;20320;-66
2022/09/01 05:22:07;;;;;;;15.30;13.90;;;14.30;99.90;;;15.12;91.85;98141.78;5223516;28;20672;-66
2022/09/01 05:24:40;;;;;;;15.50;14.15;;;14.30;99.90;;;15.15;91.86;98137.66;5224290;28;20318;-66
2022/09/01 05:27:14;;;;;;;15.52;14.23;;;14.30;99.90;;;15.19;92.48;98144.69;5221324;28;20543;-66
2022/09/01 05:29:49;;;;;;;14.98;13.77;;;14.30;99.90;;;15.25;92.11;98138.91;5221782;28;20324;-68
2022/09/01 05:32:24;;;;;;;16.27;14.90;;;14.40;99.90;;;15.29;91.87;98140.84;5220449;28;20213;-66
2022/09/01 05:35:00;;;;;;;15.60;14.20;;;14.40;99.90;;;15.29;91.29;98140.84;5222163;28;20224;-66
2022/09/01 05:37:36;;;;;;;16.60;15.02;;;14.40;99.90;;;15.32;91.65;98139.25;5221236;28;20623;-66
2022/09/01 05:40:14;;;;;;;16.20;14.75;;;14.50;99.90;;;15.37;91.55;98139.47;5220788;28;20696;-65
2022/09/01 05:42:48;;;;;;;15.73;14.23;;;14.60;99.90;;;15.45;92.13;98124.31;5221104;28;20201;-65
2022/09/01 05:45:22;;;;;;;15.52;14.23;;;14.70;99.90;;;15.53;92.17;98122.94;5221472;28;20712;-66
2022/09/01 05:47:55;;;;;;;16.65;15.15;;;14.80;99.90;;;15.71;91.67;98118.59;5221143;28;20208;-67
2022/09/01 05:50:30;;;;;;;15.63;14.13;;;14.90;99.90;;;15.82;91.04;98131.91;5219241;28;20492;-67
2022/09/01 05:53:09;;;;;;;15.82;14.45;;;15.00;99.90;;;15.90;89.78;98121.91;5220515;28;20244;-67
2022/09/01 05:55:47;;;;;;;14.77;13.43;;;15.00;99.90;;;16.02;89.42;98132.72;5221512;28;20232;-65
2022/09/01 05:58:21;;;;;;;15.20;13.80;;;15.10;99.90;;;16.15;88.83;98129.81;5220821;28;20263;-67
2022/09/01 06:00:58;;;;;;;17.00;15.52;;;15.20;99.90;;;16.29;87.68;98137.22;5222336;28;20232;-66
2022/09/01 06:03:32;;;;;;;17.75;16.15;;;15.30;99.90;;;16.27;87.77;98129.41;5221851;28;20221;-66
2022/09/01 06:06:11;;;;;;;17.02;15.52;;;15.40;99.90;;;16.29;87.97;98129.47;5219490;28;20193;-67
2022/09/01 06:08:48;;;;;;;16.48;14.98;;;15.40;99.90;;;16.27;87.81;98124.25;5217074;28;20710;-66
2022/09/01 06:11:23;;;;;;;15.05;13.75;;;15.40;99.90;;;16.31;87.56;98122.66;5218723;28;20736;-67
2022/09/01 06:13:57;;;;;;;17.27;15.77;;;15.40;99.90;;;16.38;87.26;98117.81;5220181;28;20734;-67
2022/09/01 06:16:30;;;;;;;17.40;15.90;;;15.50;99.90;;;16.42;87.31;98118.78;5220774;28;20248;-66
2022/09/01 06:19:05;;;;;;;17.15;15.63;;;15.50;99.90;;;16.46;88.24;98112.94;5221456;28;20216;-66
2022/09/01 06:21:40;;;;;;;17.65;15.90;;;15.70;99.90;;;16.66;86.65;98119.72;5215470;28;20631;-66
2022/09/01 06:24:13;;;;;;;16.98;15.48;;;15.80;99.90;;;16.81;86.71;98121.16;5219097;28;20256;-66
2022/09/01 06:26:46;;;;;;;19.13;17.38;;;15.90;99.90;;;16.92;86.00;98121.56;5220742;28;20213;-67
2022/09/01 06:29:19;;;;;;;19.58;17.83;;;16.00;99.90;;;16.99;85.51;98123.53;5215778;28;20233;-68
2022/09/01 06:31:53;;;;;;;19.08;17.38;;;16.10;99.90;;;17.08;85.55;98124.75;5220971;28;20232;-65
2022/09/01 06:34:26;;;;;;;18.20;16.48;;;16.20;99.90;;;17.09;85.54;98126.50;5219199;28;20764;-65
2022/09/01 06:37:00;;;;;;;18.02;16.42;;;16.10;99.90;;;17.13;86.37;98124.00;5220461;28;20331;-66
2022/09/01 06:39:34;;;;;;;18.88;17.10;;;16.20;99.90;;;17.24;85.99;98115.81;5223377;28;21028;-66
2022/09/01 06:42:08;;;;;;;17.77;16.20;;;16.30;99.90;;;17.35;85.15;98118.78;5221582;28;20634;-66
2022/09/01 06:44:41;;;;;;;19.33;17.67;;;16.50;99.90;;;17.60;84.85;98125.66;5220213;28;20219;-66
2022/09/01 06:47:15;;;;;;;19.85;18.05;;;16.70;99.90;;;17.62;85.13;98117.94;5220228;28;20243;-66
2022/09/01 06:49:48;;;;;;;18.77;17.00;;;16.70;99.90;;;17.70;84.05;98127.72;5222309;28;20292;-66
2022/09/01 06:52:27;;;;;;;20.02;18.13;;;16.80;99.90;;;17.79;83.70;98122.88;5219329;28;20580;-66
2022/09/01 06:55:21;;;;;;;18.58;16.92;;;16.90;99.90;;;17.83;83.62;98129.06;5217833;28;20227;-66
2022/09/01 06:57:54;;;;;;;19.02;17.40;;;16.90;99.90;;;17.93;83.72;98127.63;5220508;28;20249;-67
2022/09/01 07:00:40;;;;;;;18.48;16.88;;;17.00;99.90;;;18.03;83.60;98127.13;5215819;28;20205;-67
2022/09/01 07:03:16;;;;;;;20.38;18.58;;;17.20;99.90;;;17.89;83.50;98129.25;5215415;28;20725;-67
2022/09/01 07:05:50;;;;;;;19.23;17.50;;;17.10;99.90;;;18.00;83.60;98127.88;5224125;28;20979;-66
2022/09/01 07:08:38;;;;;;;19.27;17.63;;;17.10;99.90;;;18.18;82.97;98132.75;5216329;28;20193;-67
2022/09/01 07:11:35;;;;;;;18.63;16.85;;;17.30;99.90;;;18.57;81.69;98133.91;5216137;28;20208;-66
2022/09/01 07:14:28;;;;;;;18.90;17.10;;;17.60;99.90;;;18.43;82.21;98129.22;5220570;28;20227;-66
2022/09/01 07:17:01;;;;;;;18.25;16.60;;;17.60;99.90;;;18.61;81.93;98133.19;5215636;28;20248;-66
2022/09/01 07:19:54;;;;;;;17.05;15.55;;;17.70;99.90;;;18.95;80.48;98134.22;5220112;28;20204;-67
2022/09/01 07:22:27;;;;;;;18.65;16.88;;;18.10;99.90;;;19.55;78.64;98128.94;5222468;28;20232;-66
2022/09/01 07:25:22;;;;;;;17.35;15.73;;;18.60;99.90;;;20.97;73.16;98128.81;5221209;28;20227;-66
2022/09/01 07:27:56;;;;;;;17.30;15.75;;;19.40;99.90;;;21.56;69.16;98123.91;5222408;28;20197;-66
2022/09/01 07:30:34;;;;;;;16.20;14.80;;;20.00;99.90;;;21.32;69.26;98131.25;5228828;28;20715;-66
2022/09/01 07:33:12;;;;;;;15.55;14.18;;;19.80;99.90;;;21.13;70.34;98136.06;5225746;28;20646;-66
2022/09/01 07:36:07;;;;;;;16.30;14.80;;;19.80;99.90;;;21.19;69.79;98135.31;5222299;28;20603;-66
2022/09/01 07:39:00;;;;;;;14.10;12.82;;;20.00;99.90;;;20.89;70.69;98133.00;5221944;28;20197;-67
2022/09/01 07:41:57;;;;;;;11.95;11.05;;;19.70;99.90;;;20.84;70.42;98140.69;5225465;28;20197;-66
2022/09/01 07:44:50;;;;;;;10.30;9.50;;;19.80;99.90;;;21.30;67.35;98143.34;5222285;28;20225;-67
2022/09/01 07:47:24;;;;;;;11.07;10.10;;;20.30;99.90;;;21.09;67.12;98142.06;5225536;28;20660;-66
2022/09/01 07:50:19;;;;;;;10.25;9.45;;;20.20;99.90;;;20.89;68.22;98146.88;5223757;28;20198;-69
2022/09/01 07:53:15;;;;;;;10.13;9.32;;;20.00;99.90;;;20.83;67.97;98151.94;5220783;28;20204;-66
2022/09/01 07:55:50;;;;;;;9.30;8.60;;;20.00;99.90;;;20.93;68.03;98147.78;5220872;28;20232;-68
2022/09/01 07:58:28;;;;;;;9.95;9.15;;;20.10;99.90;;;20.70;68.70;98158.56;5220833;28;20703;-67
2022/09/01 08:01:02;;;;;;;9.40;8.70;;;19.90;99.90;;;20.62;69.02;98151.44;5222603;28;20419;-66
2022/09/01 08:03:36;;;;;;;9.45;8.75;;;19.70;99.90;;;20.61;69.03;98160.09;5222245;28;20264;-66
2022/09/01 08:06:13;;;;;;;10.35;9.45;;;19.70;99.90;;;20.62;68.88;98162.72;5222760;28;20232;-66
2022/09/01 08:08:48;;;;;;;10.00;9.20;;;19.70;99.90;;;20.52;69.19;98155.53;5221127;28;20247;-67
2022/09/01 08:11:24;;;;;;;9.15;8.45;;;19.50;99.90;;;20.42;68.64;98163.97;5223625;28;20288;-67
2022/09/01 08:14:19;;;;;;;9.45;8.75;;;19.50;99.90;;;20.27;69.38;98166.22;5224104;28;20235;-68
2022/09/01 08:16:52;;;;;;;9.23;8.52;;;19.40;99.90;;;20.48;67.54;98158.91;5223304;28;20286;-66
2022/09/01 08:19:25;;;;;;;8.80;8.20;;;19.50;99.90;;;20.52;67.58;98165.94;5218552;28;20212;-67
2022/09/01 08:21:58;;;;;;;8.82;8.10;;;19.60;99.90;;;20.71;67.13;98172.44;5219887;28;20650;-66
2022/09/01 08:24:32;;;;;;;9.00;8.30;;;19.80;99.90;;;21.07;65.85;98167.16;5218641;28;20255;-67
2022/09/01 08:27:05;;;;;;;9.20;8.60;;;20.20;99.90;;;20.86;66.89;98169.28;5221554;28;20229;-66
2022/09/01 08:29:39;;;;;;;8.10;7.47;;;20.10;99.90;;;20.69;66.98;98171.53;5219364;28;20556;-68
2022/09/01 08:32:12;;;;;;;7.50;6.90;;;20.00;99.90;;;20.72;67.45;98170.72;5221469;28;20232;-66
2022/09/01 08:34:45;;;;;;;8.48;7.82;;;19.90;99.90;;;20.73;66.95;98172.47;5223045;28;20260;-68
2022/09/01 08:37:19;;;;;;;8.35;7.63;;;19.90;99.90;;;20.72;67.68;98173.31;5223867;28;20655;-66
2022/09/01 08:39:52;;;;;;;8.35;7.55;;;19.80;99.90;;;21.06;66.02;98170.59;5224466;28;20231;-66
2022/09/01 08:42:47;;;;;;;7.57;7.07;;;20.10;99.90;;;20.89;66.46;98174.56;5225222;28;20723;-65
2022/09/01 08:45:27;;;;;;;7.88;7.32;;;20.00;99.90;;;20.82;67.04;98170.06;5222011;28;20252;-65
2022/09/01 08:48:15;;;;;;;7.65;7.05;;;20.00;99.90;;;21.20;64.96;98176.06;5221072;28;20718;-65
2022/09/01 08:51:24;;;;;;;7.43;6.82;;;20.30;99.90;;;20.94;65.50;98178.13;5220268;28;20209;-66
2022/09/01 08:54:04;;;;;;;8.57;7.88;;;20.10;99.90;;;21.02;65.01;98183.50;5223087;28;20279;-68
2022/09/01 08:56:38;;;;;;;7.85;7.15;;;20.10;99.90;;;20.85;65.76;98181.41;5216511;28;20233;-66
2022/09/01 08:59:12;;;;;;;7.68;7.15;;;20.10;99.90;;;20.96;65.09;98183.38;5217055;28;20325;-65
2022/09/01 09:01:57;;;;;;;6.63;6.13;;;20.40;99.90;;;21.54;63.08;98180.22;5220621;28;20561;-66
2022/09/01 09:04:48;;;;;;;6.53;6.03;;;20.80;99.90;;;21.69;62.43;98183.97;5218977;28;20252;-67
2022/09/01 09:07:39;;;;;;;6.38;5.88;;;21.00;99.90;;;21.54;62.60;98184.56;5223576;28;20200;-66
2022/09/01 09:10:18;;;;;;;6.40;5.85;;;20.80;99.90;;;21.62;61.97;98184.72;5222456;28;20225;-66
2022/09/01 09:13:05;;;;;;;7.38;6.78;;;20.70;99.90;;;21.54;63.12;98185.44;5219847;28;20304;-66
2022/09/01 09:15:44;;;;;;;7.93;7.32;;;20.70;99.90;;;21.21;63.67;98189.97;5222137;28;20233;-65
2022/09/01 09:18:28;;;;;;;7.78;7.18;;;20.40;99.90;;;21.30;62.85;98195.34;5216714;28;20221;-67
2022/09/01 09:21:18;;;;;;;6.90;6.40;;;20.30;99.90;;;21.27;63.82;98188.34;5221113;28;20281;-66
2022/09/01 09:23:58;;;;;;;8.95;8.25;;;20.40;99.90;;;21.13;64.14;98190.66;5219475;28;20229;-66
2022/09/01 09:26:32;;;;;;;9.00;8.30;;;20.40;99.90;;;21.12;64.98;98188.94;5220292;28;20737;-69
2022/09/01 09:29:21;;;;;;;7.28;6.78;;;20.40;99.90;;;21.34;64.74;98186.75;5222062;28;20201;-67
2022/09/01 09:32:06;;;;;;;7.20;6.72;;;20.50;99.90;;;21.50;64.72;98187.97;5221802;28;20219;-67
2022/09/01 09:34:57;;;;;;;7.95;7.45;;;20.70;99.90;;;21.78;62.54;98174.59;5220936;28;20294;-66
2022/09/01 09:37:31;;;;;;;7.70;7.10;;;20.80;99.90;;;21.62;62.63;98184.72;5221542;28;20648;-66
2022/09/01 09:40:13;;;;;;;7.53;6.93;;;20.70;99.90;;;21.78;63.05;98187.63;5220778;28;20233;-66
2022/09/01 09:43:05;;;;;;;7.40;6.88;;;20.80;99.90;;;21.98;62.70;98177.56;5219563;28;20288;-66
2022/09/01 09:45:40;;;;;;;7.45;6.88;;;21.20;99.90;;;22.27;61.10;98174.59;5219706;28;20236;-67
2022/09/01 09:48:29;;;;;;;8.43;7.72;;;21.50;99.90;;;22.40;60.32;98176.50;5217638;28;20541;-65
2022/09/01 09:51:18;;;;;;;8.27;7.68;;;21.50;99.90;;;22.33;61.19;98173.81;5220509;28;20229;-65
2022/09/01 09:53:51;;;;;;;8.15;7.55;;;21.30;99.90;;;22.23;60.45;98168.47;5221407;28;20651;-66
2022/09/01 09:56:25;;;;;;;6.90;6.40;;;21.50;99.90;;;22.40;59.77;98173.91;5223431;28;20292;-66
2022/09/01 09:58:58;;;;;;;7.85;7.25;;;21.50;99.90;;;22.29;59.40;98183.31;5219527;28;20315;-65
2022/09/01 10:01:31;;;;;;;8.15;7.50;;;21.40;99.90;;;21.95;60.44;98182.72;5220769;28;20286;-65
2022/09/01 10:04:05;;;;;;;8.00;7.45;;;20.90;99.90;;;21.85;60.59;98182.53;5220443;28;20213;-66
2022/09/01 10:06:44;;;;;;;7.53;6.93;;;20.90;99.90;;;21.73;61.37;98170.16;5220365;28;20272;-67
2022/09/01 10:09:36;;;;;;;6.53;6.13;;;20.90;99.90;;;22.09;59.94;98163.81;5222377;28;20239;-66
2022/09/01 10:12:11;;;;;;;7.47;6.88;;;21.20;99.90;;;22.17;59.60;98163.13;5220974;28;20303;-65
2022/09/01 10:14:51;;;;;;;6.85;6.35;;;21.40;99.90;;;22.45;59.34;98169.66;5221848;28;20231;-65
2022/09/01 10:17:34;;;;;;;7.50;7.00;;;21.70;99.90;;;22.65;58.02;98174.28;5222552;28;20599;-67
2022/09/01 10:20:15;;;;;;;7.15;6.57;;;21.90;99.90;;;22.28;58.24;98165.91;5221593;28;20743;-67
2022/09/01 10:22:53;;;;;;;7.35;6.75;;;21.60;99.90;;;22.33;58.99;98174.69;5224237;28;20212;-67
2022/09/01 10:25:33;;;;;;;6.50;6.10;;;21.60;99.90;;;22.65;58.44;98171.66;5220079;28;20307;-67
2022/09/01 10:28:13;;;;;;;6.47;5.97;;;21.80;99.90;;;22.53;57.42;98171.50;5222340;28;20207;-66
2022/09/01 10:30:55;;;;;;;6.80;6.30;;;21.90;99.20;;;22.38;57.26;98173.03;5221768;28;20302;-67
2022/09/01 10:33:30;;;;;;;6.88;6.38;;;21.70;99.40;;;22.47;57.56;98162.75;5221270;28;20589;-66
2022/09/01 10:36:08;;;;;;;6.65;6.20;;;21.70;99.80;;;22.67;57.06;98176.06;5219162;28;20204;-67
2022/09/01 10:38:44;;;;;;;6.30;5.80;;;21.90;99.40;;;22.29;57.57;98170.28;5221802;28;20732;-66
2022/09/01 10:41:49;;;;;;;6.25;5.85;;;21.60;99.30;;;22.61;58.07;98172.50;5224423;28;20201;-66
2022/09/01 10:44:37;;;;;;;5.57;5.28;;;21.90;99.60;;;22.86;56.75;98168.47;5216987;28;20220;-67
2022/09/01 10:47:28;;;;;;;7.03;6.53;;;22.10;99.00;;;22.87;55.68;98167.63;5219068;28;20308;-66
2022/09/01 10:50:23;;;;;;;6.53;5.95;;;22.30;97.80;;;22.86;56.25;98166.78;5218155;28;20254;-67
2022/09/01 10:53:02;;;;;;;6.32;5.93;;;22.10;98.40;;;22.86;55.92;98169.38;5219635;28;20205;-67
2022/09/01 10:56:03;;;;;;;6.63;6.10;;;22.10;98.30;;;22.80;56.29;98163.19;5220161;28;20626;-66
2022/09/01 10:59:07;;;;;;;6.35;5.85;;;22.00;98.60;;;22.88;56.34;98158.94;5224330;28;20216;-66
2022/09/01 11:02:14;;;;;;;6.85;6.25;;;22.10;98.80;;;22.67;56.62;98159.56;5214430;28;20197;-67
2022/09/01 11:05:15;;;;;;;6.65;6.15;;;21.80;98.80;;;22.65;56.15;98158.66;5219401;28;21026;-66